createdAt,value
2019-05-18T00:00:12.180Z,11.73
2019-05-18T00:01:12.114Z,11.73
2019-05-18T00:02:12.103Z,11.65
2019-05-18T00:03:12.093Z,11.65
2019-05-18T00:04:12.085Z,11.60
2019-05-18T00:05:12.128Z,11.48
2019-05-18T00:06:12.064Z,11.47
2019-05-18T00:07:12.056Z,11.48
2019-05-18T00:08:12.044Z,11.51
2019-05-18T00:09:12.033Z,11.51
2019-05-18T00:10:12.024Z,11.50
2019-05-18T00:11:12.066Z,11.54
2019-05-18T00:12:12.005Z,11.48
2019-05-18T00:13:11.994Z,11.57
2019-05-18T00:14:11.983Z,11.55
2019-05-18T00:15:11.973Z,11.51
2019-05-18T00:16:11.963Z,11.54
2019-05-18T00:17:24.564Z,11.60
2019-05-18T00:18:11.944Z,11.57
2019-05-18T00:19:11.934Z,11.57
2019-05-18T00:20:11.938Z,11.54
2019-05-18T00:21:11.924Z,11.51
2019-05-18T00:22:11.903Z,11.50
2019-05-18T00:23:11.893Z,11.37
2019-05-18T00:24:11.884Z,11.36
2019-05-18T00:25:11.876Z,11.50
2019-05-18T00:26:11.863Z,11.45
2019-05-18T00:27:11.876Z,11.44
2019-05-18T00:28:11.844Z,11.41
2019-05-18T00:29:11.834Z,11.40
2019-05-18T00:30:11.830Z,11.41
2019-05-18T00:31:11.833Z,11.41
2019-05-18T00:32:11.812Z,11.43
2019-05-18T00:33:11.796Z,11.35
2019-05-18T00:34:11.783Z,11.44
2019-05-18T00:35:11.774Z,11.48
2019-05-18T00:36:11.773Z,11.33
2019-05-18T00:37:11.758Z,11.40
2019-05-18T00:38:11.742Z,11.43
2019-05-18T00:39:11.736Z,11.33
2019-05-18T00:40:11.722Z,11.36
2019-05-18T00:41:11.714Z,11.27
2019-05-18T00:42:11.703Z,11.27
2019-05-18T00:43:11.693Z,11.23
2019-05-18T00:44:11.682Z,11.29
2019-05-18T00:45:11.671Z,11.22
2019-05-18T00:46:11.660Z,11.22
2019-05-18T00:47:11.650Z,11.30
2019-05-18T00:48:11.641Z,11.35
2019-05-18T00:49:11.631Z,11.30
2019-05-18T00:50:11.622Z,11.30
2019-05-18T00:51:11.614Z,11.30
2019-05-18T00:52:11.606Z,11.23
2019-05-18T00:53:11.589Z,11.22
2019-05-18T00:54:11.580Z,11.26
2019-05-18T00:55:11.572Z,11.18
2019-05-18T00:56:11.559Z,11.19
2019-05-18T00:57:11.550Z,11.27
2019-05-18T00:58:11.545Z,11.19
2019-05-18T00:59:15.893Z,11.23
2019-05-18T01:00:11.519Z,11.25
2019-05-18T01:01:11.510Z,11.32
2019-05-18T01:02:11.501Z,11.32
2019-05-18T01:03:11.488Z,11.27
2019-05-18T01:04:11.479Z,11.40
2019-05-18T01:05:11.469Z,11.23
2019-05-18T01:06:11.460Z,11.25
2019-05-18T01:07:11.458Z,11.19
2019-05-18T01:08:11.481Z,11.27
2019-05-18T01:09:11.453Z,11.22
2019-05-18T01:10:11.418Z,11.23
2019-05-18T01:11:11.408Z,11.29
2019-05-18T01:12:11.449Z,11.19
2019-05-18T01:13:11.395Z,11.27
2019-05-18T01:14:11.378Z,11.30
2019-05-18T01:15:11.371Z,11.41
2019-05-18T01:16:11.358Z,11.41
2019-05-18T01:17:11.363Z,11.40
2019-05-18T01:18:11.338Z,11.37
2019-05-18T01:19:11.331Z,11.47
2019-05-18T01:20:11.317Z,11.41
2019-05-18T01:21:11.313Z,11.44
2019-05-18T01:22:11.296Z,11.44
2019-05-18T01:23:11.287Z,11.35
2019-05-18T01:24:11.277Z,11.26
2019-05-18T01:25:11.267Z,11.17
2019-05-18T01:26:11.255Z,11.18
2019-05-18T01:27:11.245Z,11.15
2019-05-18T01:28:11.237Z,11.14
2019-05-18T01:29:11.225Z,11.10
2019-05-18T01:30:11.214Z,11.10
2019-05-18T01:31:11.204Z,11.10
2019-05-18T01:32:11.197Z,10.97
2019-05-18T01:33:11.192Z,10.89
2019-05-18T01:34:11.174Z,10.75
2019-05-18T01:35:11.165Z,10.81
2019-05-18T01:36:11.152Z,10.84
2019-05-18T01:37:11.143Z,10.76
2019-05-18T01:38:11.131Z,10.78
2019-05-18T01:39:11.123Z,10.78
2019-05-18T01:40:11.113Z,10.75
2019-05-18T01:41:11.103Z,10.72
2019-05-18T01:42:11.096Z,10.71
2019-05-18T01:43:11.079Z,10.69
2019-05-18T01:44:11.069Z,10.71
2019-05-18T01:45:16.956Z,10.74
2019-05-18T01:46:11.049Z,10.63
2019-05-18T01:47:11.039Z,10.71
2019-05-18T01:48:14.021Z,10.75
2019-05-18T01:49:11.016Z,10.57
2019-05-18T01:50:11.008Z,10.54
2019-05-18T01:51:10.995Z,10.59
2019-05-18T01:52:10.986Z,10.63
2019-05-18T01:53:10.976Z,10.57
2019-05-18T01:54:10.963Z,10.48
2019-05-18T01:55:10.954Z,10.44
2019-05-18T01:56:10.946Z,10.48
2019-05-18T01:57:10.932Z,10.48
2019-05-18T01:58:10.924Z,10.44
2019-05-18T01:59:10.912Z,10.46
2019-05-18T02:00:10.900Z,10.40
2019-05-18T02:01:10.890Z,10.42
2019-05-18T02:02:10.880Z,10.44
2019-05-18T02:03:10.874Z,10.42
2019-05-18T02:04:10.858Z,10.31
2019-05-18T02:05:10.849Z,10.38
2019-05-18T02:06:10.845Z,10.42
2019-05-18T02:07:10.826Z,10.41
2019-05-18T02:08:10.815Z,10.46
2019-05-18T02:09:10.807Z,10.46
2019-05-18T02:10:10.794Z,10.40
2019-05-18T02:11:10.784Z,10.31
2019-05-18T02:12:10.772Z,10.35
2019-05-18T02:13:10.817Z,10.44
2019-05-18T02:14:10.752Z,10.49
2019-05-18T02:15:10.769Z,10.41
2019-05-18T02:16:10.733Z,10.46
2019-05-18T02:17:10.721Z,10.46
2019-05-18T02:18:10.714Z,10.41
2019-05-18T02:19:10.699Z,10.44
2019-05-18T02:20:10.692Z,10.48
2019-05-18T02:21:10.678Z,10.44
2019-05-18T02:22:10.666Z,10.38
2019-05-18T02:23:10.656Z,10.48
2019-05-18T02:24:10.654Z,10.46
2019-05-18T02:25:10.635Z,10.46
2019-05-18T02:26:10.625Z,10.51
2019-05-18T02:27:10.670Z,10.49
2019-05-18T02:28:10.603Z,10.49
2019-05-18T02:29:10.593Z,10.51
2019-05-18T02:30:10.582Z,10.51
2019-05-18T02:31:10.573Z,10.51
2019-05-18T02:32:10.562Z,10.53
2019-05-18T02:33:10.651Z,10.54
2019-05-18T02:34:10.542Z,10.53
2019-05-18T02:35:10.529Z,10.54
2019-05-18T02:36:10.519Z,10.57
2019-05-18T02:37:10.509Z,10.56
2019-05-18T02:38:10.498Z,10.59
2019-05-18T02:39:10.489Z,10.56
2019-05-18T02:40:10.483Z,10.53
2019-05-18T02:41:10.470Z,10.53
2019-05-18T02:42:10.454Z,10.56
2019-05-18T02:43:10.446Z,10.54
2019-05-18T02:44:10.435Z,10.53
2019-05-18T02:45:10.427Z,10.54
2019-05-18T02:46:10.414Z,10.59
2019-05-18T02:47:10.402Z,10.54
2019-05-18T02:48:10.415Z,10.60
2019-05-18T02:49:10.386Z,10.60
2019-05-18T02:50:10.395Z,10.56
2019-05-18T02:51:11.687Z,10.56
2019-05-18T02:52:10.364Z,10.60
2019-05-18T02:53:10.341Z,10.60
2019-05-18T02:54:10.329Z,10.61
2019-05-18T02:55:10.320Z,10.49
2019-05-18T02:56:10.310Z,10.56
2019-05-18T02:57:10.299Z,10.54
2019-05-18T02:58:10.286Z,10.54
2019-05-18T02:59:10.277Z,10.57
2019-05-18T03:00:10.284Z,10.57
2019-05-18T03:01:10.256Z,10.46
2019-05-18T03:02:10.245Z,10.49
2019-05-18T03:03:10.236Z,10.56
2019-05-18T03:04:10.225Z,10.56
2019-05-18T03:05:10.217Z,10.56
2019-05-18T03:06:10.202Z,10.57
2019-05-18T03:07:10.192Z,10.48
2019-05-18T03:08:10.184Z,10.46
2019-05-18T03:09:10.171Z,10.49
2019-05-18T03:10:10.162Z,10.49
2019-05-18T03:11:10.156Z,10.51
2019-05-18T03:12:10.141Z,10.53
2019-05-18T03:13:10.133Z,10.51
2019-05-18T03:14:10.128Z,10.42
2019-05-18T03:15:10.108Z,10.38
2019-05-18T03:16:10.098Z,10.41
2019-05-18T03:17:10.094Z,10.38
2019-05-18T03:18:10.085Z,10.22
2019-05-18T03:19:10.072Z,10.20
2019-05-18T03:20:10.056Z,10.10
2019-05-18T03:21:10.046Z,10.19
2019-05-18T03:22:10.036Z,10.16
2019-05-18T03:23:10.025Z,10.20
2019-05-18T03:24:10.079Z,10.13
2019-05-18T03:25:10.004Z,10.07
2019-05-18T03:26:09.991Z,9.99
2019-05-18T03:27:09.981Z,10.07
2019-05-18T03:28:09.971Z,10.10
2019-05-18T03:29:09.962Z,10.05
2019-05-18T03:30:09.951Z,9.99
2019-05-18T03:31:09.959Z,10.09
2019-05-18T03:32:09.927Z,9.98
2019-05-18T03:33:09.952Z,9.95
2019-05-18T03:34:09.916Z,9.92
2019-05-18T03:35:09.894Z,9.97
2019-05-18T03:36:09.883Z,9.94
2019-05-18T03:37:09.879Z,9.94
2019-05-18T03:38:09.861Z,9.95
2019-05-18T03:39:09.851Z,9.97
2019-05-18T03:40:09.844Z,9.92
2019-05-18T03:41:09.834Z,9.89
2019-05-18T03:42:09.817Z,9.94
2019-05-18T03:43:09.822Z,9.91
2019-05-18T03:44:09.797Z,9.95
2019-05-18T03:45:09.794Z,10.12
2019-05-18T03:46:09.774Z,9.99
2019-05-18T03:47:09.769Z,10.02
2019-05-18T03:48:09.753Z,10.01
2019-05-18T03:49:25.366Z,10.01
2019-05-18T03:50:09.731Z,9.98
2019-05-18T03:51:09.721Z,9.98
2019-05-18T03:52:09.712Z,10.07
2019-05-18T03:53:09.700Z,10.13
2019-05-18T03:54:09.689Z,10.09
2019-05-18T03:55:09.677Z,10.13
2019-05-18T03:56:09.668Z,10.13
2019-05-18T03:57:09.658Z,9.98
2019-05-18T03:58:09.644Z,10.07
2019-05-18T03:59:09.634Z,10.13
2019-05-18T04:00:09.623Z,10.10
2019-05-18T04:01:09.613Z,10.10
2019-05-18T04:02:09.602Z,10.19
2019-05-18T04:03:09.590Z,10.10
2019-05-18T04:04:09.591Z,10.12
2019-05-18T04:05:09.571Z,10.10
2019-05-18T04:06:09.560Z,10.12
2019-05-18T04:07:09.547Z,10.13
2019-05-18T04:08:09.537Z,10.19
2019-05-18T04:09:09.526Z,10.09
2019-05-18T04:10:09.517Z,10.17
2019-05-18T04:11:09.513Z,10.05
2019-05-18T04:12:09.493Z,10.10
2019-05-18T04:13:09.483Z,10.16
2019-05-18T04:14:09.472Z,10.13
2019-05-18T04:15:09.463Z,10.16
2019-05-18T04:16:09.453Z,10.20
2019-05-18T04:17:09.474Z,10.20
2019-05-18T04:18:09.428Z,10.23
2019-05-18T04:19:09.420Z,10.23
2019-05-18T04:20:09.409Z,10.20
2019-05-18T04:21:09.398Z,10.31
2019-05-18T04:22:09.396Z,10.16
2019-05-18T04:23:09.375Z,10.23
2019-05-18T04:24:09.366Z,10.16
2019-05-18T04:25:09.354Z,10.26
2019-05-18T04:26:09.344Z,10.23
2019-05-18T04:27:09.334Z,10.28
2019-05-18T04:28:09.323Z,10.33
2019-05-18T04:29:09.313Z,10.33
2019-05-18T04:30:09.300Z,10.44
2019-05-18T04:31:09.289Z,10.48
2019-05-18T04:32:09.281Z,10.51
2019-05-18T04:33:09.268Z,10.51
2019-05-18T04:34:09.261Z,10.61
2019-05-18T04:35:09.247Z,10.53
2019-05-18T04:36:09.246Z,10.63
2019-05-18T04:37:09.229Z,10.64
2019-05-18T04:38:09.215Z,10.59
2019-05-18T04:39:09.207Z,10.72
2019-05-18T04:40:09.202Z,10.60
2019-05-18T04:41:09.185Z,10.64
2019-05-18T04:42:09.178Z,10.74
2019-05-18T04:43:09.166Z,10.72
2019-05-18T04:44:09.157Z,10.74
2019-05-18T04:45:09.153Z,10.74
2019-05-18T04:46:09.133Z,10.75
2019-05-18T04:47:09.122Z,10.69
2019-05-18T04:48:09.111Z,10.74
2019-05-18T04:49:09.102Z,10.71
2019-05-18T04:50:09.093Z,10.84
2019-05-18T04:51:09.082Z,10.79
2019-05-18T04:52:09.071Z,10.86
2019-05-18T04:53:09.088Z,10.90
2019-05-18T04:54:09.050Z,10.84
2019-05-18T04:55:09.042Z,10.93
2019-05-18T04:56:09.029Z,10.92
2019-05-18T04:57:09.020Z,11.00
2019-05-18T04:58:09.033Z,10.97
2019-05-18T04:59:09.000Z,11.00
2019-05-18T05:00:08.991Z,11.02
2019-05-18T05:01:08.980Z,11.02
2019-05-18T05:02:09.008Z,11.10
2019-05-18T05:03:08.959Z,11.04
2019-05-18T05:04:08.949Z,11.17
2019-05-18T05:05:08.939Z,11.17
2019-05-18T05:06:08.930Z,11.17
2019-05-18T05:07:08.919Z,11.18
2019-05-18T05:08:08.908Z,11.15
2019-05-18T05:09:08.905Z,11.18
2019-05-18T05:10:08.892Z,11.15
2019-05-18T05:11:08.880Z,11.17
2019-05-18T05:12:08.869Z,11.25
2019-05-18T05:13:08.860Z,11.15
2019-05-18T05:14:08.853Z,11.18
2019-05-18T05:15:08.839Z,11.04
2019-05-18T05:16:08.830Z,11.07
2019-05-18T05:17:08.820Z,10.97
2019-05-18T05:18:08.809Z,10.99
2019-05-18T05:19:09.005Z,10.96
2019-05-18T05:20:19.175Z,11.07
2019-05-18T05:21:08.786Z,10.99
2019-05-18T05:22:08.769Z,11.04
2019-05-18T05:23:08.759Z,11.05
2019-05-18T05:24:08.749Z,11.02
2019-05-18T05:25:08.740Z,11.07
2019-05-18T05:26:08.730Z,10.96
2019-05-18T05:27:08.719Z,10.96
2019-05-18T05:28:08.710Z,11.11
2019-05-18T05:29:08.700Z,11.00
2019-05-18T05:30:08.689Z,11.05
2019-05-18T05:31:08.683Z,11.17
2019-05-18T05:32:08.669Z,11.18
2019-05-18T05:33:08.661Z,11.23
2019-05-18T05:34:08.649Z,11.22
2019-05-18T05:35:08.639Z,11.30
2019-05-18T05:36:08.631Z,11.41
2019-05-18T05:37:08.624Z,11.43
2019-05-18T05:38:08.626Z,11.35
2019-05-18T05:39:08.616Z,11.52
2019-05-18T05:40:08.596Z,11.47
2019-05-18T05:41:08.598Z,11.60
2019-05-18T05:42:08.577Z,11.62
2019-05-18T05:43:08.560Z,11.66
2019-05-18T05:44:08.551Z,11.65
2019-05-18T05:45:08.542Z,11.66
2019-05-18T05:46:08.531Z,11.63
2019-05-18T05:47:08.522Z,11.88
2019-05-18T05:48:08.514Z,11.95
2019-05-18T05:49:08.505Z,11.99
2019-05-18T05:50:08.493Z,12.06
2019-05-18T05:51:08.483Z,12.04
2019-05-18T05:52:08.475Z,12.15
2019-05-18T05:53:08.468Z,12.10
2019-05-18T05:54:08.455Z,12.18
2019-05-18T05:55:08.450Z,12.15
2019-05-18T05:56:08.439Z,12.06
2019-05-18T05:57:08.428Z,12.18
2019-05-18T05:58:08.418Z,12.17
2019-05-18T05:59:08.426Z,12.22
2019-05-18T06:00:08.400Z,12.22
2019-05-18T06:01:08.397Z,12.25
2019-05-18T06:02:08.381Z,12.18
2019-05-18T06:03:08.372Z,12.28
2019-05-18T06:04:08.364Z,12.36
2019-05-18T06:05:08.355Z,12.36
2019-05-18T06:06:08.344Z,12.35
2019-05-18T06:07:08.335Z,12.28
2019-05-18T06:08:08.327Z,12.32
2019-05-18T06:09:08.318Z,12.35
2019-05-18T06:10:08.308Z,12.49
2019-05-18T06:11:08.303Z,12.42
2019-05-18T06:12:08.290Z,12.55
2019-05-18T06:13:08.281Z,12.42
2019-05-18T06:14:08.272Z,12.54
2019-05-18T06:15:08.263Z,12.50
2019-05-18T06:16:08.255Z,12.57
2019-05-18T06:17:08.623Z,12.55
2019-05-18T06:18:08.236Z,12.42
2019-05-18T06:19:08.231Z,12.29
2019-05-18T06:20:08.219Z,12.24
2019-05-18T06:21:08.211Z,12.13
2019-05-18T06:22:08.200Z,12.15
2019-05-18T06:23:08.194Z,12.15
2019-05-18T06:24:08.183Z,12.25
2019-05-18T06:25:08.367Z,12.18
2019-05-18T06:26:08.183Z,12.13
2019-05-18T06:27:08.155Z,12.17
2019-05-18T06:28:08.148Z,12.12
2019-05-18T06:29:08.141Z,12.25
2019-05-18T06:30:08.130Z,12.18
2019-05-18T06:31:08.120Z,12.09
2019-05-18T06:32:08.116Z,12.06
2019-05-18T06:33:08.103Z,11.99
2019-05-18T06:34:08.094Z,12.06
2019-05-18T06:35:08.094Z,12.04
2019-05-18T06:36:08.082Z,12.07
2019-05-18T06:37:08.067Z,12.13
2019-05-18T06:38:08.056Z,12.17
2019-05-18T06:39:08.048Z,12.22
2019-05-18T06:40:08.039Z,12.20
2019-05-18T06:41:08.031Z,12.28
2019-05-18T06:42:10.800Z,12.35
2019-05-18T06:43:08.013Z,12.32
2019-05-18T06:44:08.006Z,12.45
2019-05-18T06:45:08.002Z,12.58
2019-05-18T06:46:07.987Z,12.57
2019-05-18T06:47:07.978Z,12.57
2019-05-18T06:48:07.970Z,12.70
2019-05-18T06:49:07.963Z,12.87
2019-05-18T06:50:11.385Z,13.03
2019-05-18T06:51:07.970Z,13.16
2019-05-18T06:52:07.937Z,13.35
2019-05-18T06:53:07.929Z,13.39
2019-05-18T06:54:07.921Z,13.30
2019-05-18T06:55:07.916Z,13.30
2019-05-18T06:56:07.910Z,13.30
2019-05-18T06:57:07.898Z,13.30
2019-05-18T06:58:07.889Z,13.35
2019-05-18T06:59:07.886Z,13.19
2019-05-18T07:00:07.874Z,13.25
2019-05-18T07:01:07.866Z,13.25
2019-05-18T07:02:07.859Z,13.11
2019-05-18T07:03:07.851Z,13.15
2019-05-18T07:04:07.844Z,13.27
2019-05-18T07:05:07.836Z,13.30
2019-05-18T07:06:07.828Z,13.42
2019-05-18T07:07:07.821Z,13.52
2019-05-18T07:08:07.812Z,13.59
2019-05-18T07:09:13.817Z,13.53
2019-05-18T07:10:07.795Z,13.52
2019-05-18T07:11:07.789Z,13.31
2019-05-18T07:12:07.781Z,13.47
2019-05-18T07:13:07.774Z,13.50
2019-05-18T07:14:07.776Z,13.49
2019-05-18T07:15:07.758Z,13.50
2019-05-18T07:16:07.749Z,13.47
2019-05-18T07:17:07.742Z,13.67
2019-05-18T07:18:07.734Z,13.68
2019-05-18T07:19:07.726Z,13.79
2019-05-18T07:20:07.718Z,13.87
2019-05-18T07:21:21.457Z,13.93
2019-05-18T07:22:07.704Z,14.03
2019-05-18T07:23:07.696Z,14.03
2019-05-18T07:24:07.688Z,14.12
2019-05-18T07:25:07.681Z,14.03
2019-05-18T07:26:07.679Z,14.11
2019-05-18T07:27:07.666Z,13.95
2019-05-18T07:28:07.658Z,13.86
2019-05-18T07:29:07.651Z,13.78
2019-05-18T07:30:07.644Z,13.63
2019-05-18T07:31:07.639Z,13.62
2019-05-18T07:32:07.632Z,13.57
2019-05-18T07:33:07.622Z,13.57
2019-05-18T07:34:07.614Z,13.77
2019-05-18T07:35:07.606Z,13.97
2019-05-18T07:36:07.600Z,13.92
2019-05-18T07:37:07.591Z,14.04
2019-05-18T07:38:07.584Z,14.18
2019-05-18T07:39:07.576Z,14.25
2019-05-18T07:40:07.574Z,14.45
2019-05-18T07:41:07.610Z,14.53
2019-05-18T07:42:07.556Z,14.51
2019-05-18T07:43:07.548Z,14.73
2019-05-18T07:44:07.542Z,14.70
2019-05-18T07:45:07.535Z,14.91
2019-05-18T07:46:08.845Z,15.04
2019-05-18T07:47:07.522Z,15.17
2019-05-18T07:48:07.516Z,15.09
2019-05-18T07:49:07.515Z,15.04
2019-05-18T07:50:07.512Z,14.85
2019-05-18T07:51:07.500Z,14.94
2019-05-18T07:52:07.493Z,15.04
2019-05-18T07:53:07.487Z,15.24
2019-05-18T07:54:07.481Z,15.36
2019-05-18T07:55:07.538Z,15.52
2019-05-18T07:56:07.475Z,15.68
2019-05-18T07:57:07.468Z,15.62
2019-05-18T07:58:07.466Z,15.76
2019-05-18T07:59:07.457Z,15.86
2019-05-18T08:00:07.453Z,16.02
2019-05-18T08:01:07.447Z,16.08
2019-05-18T08:02:07.443Z,16.10
2019-05-18T08:03:07.438Z,16.15
2019-05-18T08:04:07.441Z,16.00
2019-05-18T08:05:07.431Z,16.09
2019-05-18T08:06:07.426Z,16.16
2019-05-18T08:07:07.423Z,16.26
2019-05-18T08:08:07.419Z,16.50
2019-05-18T08:09:07.441Z,16.69
2019-05-18T08:10:07.414Z,16.76
2019-05-18T08:11:07.414Z,16.76
2019-05-18T08:12:07.419Z,16.69
2019-05-18T08:13:07.433Z,16.90
2019-05-18T08:14:07.408Z,16.94
2019-05-18T08:15:07.407Z,17.30
2019-05-18T08:16:07.407Z,17.33
2019-05-18T08:17:07.407Z,17.29
2019-05-18T08:18:07.408Z,16.94
2019-05-18T08:19:07.410Z,16.86
2019-05-18T08:20:07.410Z,16.97
2019-05-18T08:21:07.465Z,16.96
2019-05-18T08:22:07.414Z,16.99
2019-05-18T08:23:07.420Z,17.01
2019-05-18T08:24:07.432Z,16.91
2019-05-18T08:25:07.413Z,16.86
2019-05-18T08:26:07.412Z,17.09
2019-05-18T08:27:07.412Z,17.26
2019-05-18T08:28:07.415Z,17.34
2019-05-18T08:29:07.412Z,17.48
2019-05-18T08:30:07.414Z,17.67
2019-05-18T08:31:07.416Z,17.63
2019-05-18T08:32:07.411Z,17.63
2019-05-18T08:33:07.482Z,17.41
2019-05-18T08:34:07.409Z,17.34
2019-05-18T08:35:07.406Z,16.96
2019-05-18T08:36:07.405Z,16.99
2019-05-18T08:37:07.404Z,17.02
2019-05-18T08:38:07.403Z,17.06
2019-05-18T08:39:07.417Z,16.91
2019-05-18T08:40:07.403Z,16.96
2019-05-18T08:41:07.395Z,16.90
2019-05-18T08:42:07.392Z,17.01
2019-05-18T08:43:07.394Z,17.04
2019-05-18T08:44:07.387Z,17.11
2019-05-18T08:45:07.386Z,16.99
2019-05-18T08:46:07.381Z,17.02
2019-05-18T08:47:07.382Z,17.16
2019-05-18T08:48:07.376Z,17.46
2019-05-18T08:49:07.375Z,17.56
2019-05-18T08:50:07.380Z,17.92
2019-05-18T08:51:07.382Z,18.11
2019-05-18T08:52:08.633Z,18.34
2019-05-18T08:53:07.368Z,18.31
2019-05-18T08:54:07.366Z,18.52
2019-05-18T08:55:07.369Z,18.56
2019-05-18T08:56:07.368Z,18.60
2019-05-18T08:57:07.368Z,18.80
2019-05-18T08:58:07.365Z,18.88
2019-05-18T08:59:07.365Z,18.71
2019-05-18T09:00:07.366Z,19.07
2019-05-18T09:01:07.368Z,19.18
2019-05-18T09:02:07.367Z,19.49
2019-05-18T09:03:07.418Z,19.74
2019-05-18T09:04:07.370Z,19.92
2019-05-18T09:05:07.381Z,20.03
2019-05-18T09:06:07.375Z,20.19
2019-05-18T09:07:07.376Z,20.31
2019-05-18T09:08:07.386Z,20.40
2019-05-18T09:09:07.383Z,20.50
2019-05-18T09:10:07.382Z,20.56
2019-05-18T09:11:07.385Z,20.66
2019-05-18T09:12:07.388Z,20.82
2019-05-18T09:13:07.394Z,21.21
2019-05-18T09:14:07.396Z,21.25
2019-05-18T09:15:07.400Z,21.27
2019-05-18T09:16:07.403Z,20.85
2019-05-18T09:17:07.406Z,20.62
2019-05-18T09:18:07.409Z,20.36
2019-05-18T09:19:07.413Z,20.32
2019-05-18T09:20:07.415Z,20.31
2019-05-18T09:21:07.420Z,20.13
2019-05-18T09:22:07.469Z,19.94
2019-05-18T09:23:07.420Z,19.91
2019-05-18T09:24:07.422Z,19.63
2019-05-18T09:25:07.424Z,19.34
2019-05-18T09:26:07.424Z,19.36
2019-05-18T09:27:07.425Z,19.49
2019-05-18T09:28:07.438Z,19.73
2019-05-18T09:29:07.428Z,19.63
2019-05-18T09:30:07.610Z,19.77
2019-05-18T09:31:07.425Z,19.59
2019-05-18T09:32:07.430Z,19.45
2019-05-18T09:33:07.426Z,19.51
2019-05-18T09:34:07.432Z,19.58
2019-05-18T09:35:07.427Z,19.70
2019-05-18T09:36:07.428Z,19.74
2019-05-18T09:37:07.424Z,19.73
2019-05-18T09:38:07.423Z,19.81
2019-05-18T09:39:07.422Z,19.64
2019-05-18T09:40:07.423Z,19.45
2019-05-18T09:41:07.421Z,19.40
2019-05-18T09:42:07.431Z,19.41
2019-05-18T09:43:07.427Z,19.49
2019-05-18T09:44:07.424Z,19.37
2019-05-18T09:45:07.423Z,19.52
2019-05-18T09:46:07.417Z,19.59
2019-05-18T09:47:07.416Z,19.62
2019-05-18T09:48:07.416Z,19.71
2019-05-18T09:49:07.430Z,19.59
2019-05-18T09:50:07.418Z,19.63
2019-05-18T09:51:07.414Z,19.77
2019-05-18T09:52:07.412Z,20.19
2019-05-18T09:53:07.413Z,20.82
2019-05-18T09:54:07.414Z,21.09
2019-05-18T09:55:07.417Z,21.18
2019-05-18T09:56:07.427Z,21.36
2019-05-18T09:57:07.421Z,21.54
2019-05-18T09:58:07.428Z,21.32
2019-05-18T09:59:07.427Z,21.32
2019-05-18T10:00:07.430Z,21.39
2019-05-18T10:01:07.433Z,21.06
2019-05-18T10:02:07.436Z,21.06
2019-05-18T10:03:07.438Z,21.15
2019-05-18T10:04:07.440Z,20.88
2019-05-18T10:05:07.443Z,20.90
2019-05-18T10:06:07.449Z,20.88
2019-05-18T10:07:07.446Z,20.92
2019-05-18T10:08:07.453Z,21.02
2019-05-18T10:09:07.457Z,21.03
2019-05-18T10:10:07.451Z,21.06
2019-05-18T10:11:07.453Z,21.02
2019-05-18T10:12:07.457Z,20.87
2019-05-18T10:13:07.457Z,20.99
2019-05-18T10:14:07.457Z,20.87
2019-05-18T10:15:07.459Z,20.77
2019-05-18T10:16:07.460Z,20.85
2019-05-18T10:17:07.464Z,20.95
2019-05-18T10:18:07.513Z,20.72
2019-05-18T10:19:07.466Z,20.36
2019-05-18T10:20:07.473Z,20.21
2019-05-18T10:21:07.468Z,19.67
2019-05-18T10:22:07.465Z,19.73
2019-05-18T10:23:12.990Z,19.73
2019-05-18T10:24:07.465Z,19.91
2019-05-18T10:25:07.466Z,20.02
2019-05-18T10:26:07.466Z,20.14
2019-05-18T10:27:07.468Z,20.19
2019-05-18T10:28:07.467Z,20.25
2019-05-18T10:29:07.464Z,20.29
2019-05-18T10:30:07.463Z,20.43
2019-05-18T10:31:07.461Z,20.37
2019-05-18T10:32:07.530Z,20.39
2019-05-18T10:33:07.511Z,20.39
2019-05-18T10:34:07.459Z,20.63
2019-05-18T10:35:07.459Z,20.81
2019-05-18T10:36:07.458Z,20.85
2019-05-18T10:37:07.463Z,20.47
2019-05-18T10:38:07.456Z,20.62
2019-05-18T10:39:07.462Z,20.41
2019-05-18T10:40:07.457Z,20.56
2019-05-18T10:41:07.461Z,20.72
2019-05-18T10:42:07.458Z,20.85
2019-05-18T10:43:07.456Z,21.12
2019-05-18T10:44:07.459Z,21.46
2019-05-18T10:45:07.472Z,21.91
2019-05-18T10:46:07.464Z,21.92
2019-05-18T10:47:07.469Z,21.98
2019-05-18T10:48:07.515Z,22.38
2019-05-18T10:49:07.477Z,22.63
2019-05-18T10:50:07.482Z,22.57
2019-05-18T10:51:07.491Z,22.80
2019-05-18T10:52:07.493Z,23.08
2019-05-18T10:53:07.501Z,23.44
2019-05-18T10:54:07.506Z,23.41
2019-05-18T10:55:07.513Z,23.41
2019-05-18T10:56:07.525Z,23.09
2019-05-18T10:57:07.529Z,22.75
2019-05-18T10:58:07.534Z,22.75
2019-05-18T10:59:07.542Z,22.80
2019-05-18T11:00:07.561Z,23.27
2019-05-18T11:01:07.559Z,23.55
2019-05-18T11:02:07.566Z,23.55
2019-05-18T11:03:07.623Z,23.77
2019-05-18T11:04:07.580Z,23.93
2019-05-18T11:05:07.604Z,24.14
2019-05-18T11:06:07.600Z,24.39
2019-05-18T11:07:07.606Z,24.28
2019-05-18T11:08:07.614Z,24.39
2019-05-18T11:09:07.632Z,24.78
2019-05-18T11:10:07.632Z,25.13
2019-05-18T11:11:07.644Z,25.36
2019-05-18T11:12:07.651Z,25.50
2019-05-18T11:13:07.718Z,25.68
2019-05-18T11:14:07.670Z,25.84
2019-05-18T11:15:07.683Z,25.75
2019-05-18T11:16:07.707Z,25.75
2019-05-18T11:17:07.707Z,25.83
2019-05-18T11:18:07.713Z,25.72
2019-05-18T11:19:07.721Z,25.41
2019-05-18T11:20:07.731Z,25.36
2019-05-18T11:21:07.742Z,25.63
2019-05-18T11:22:07.749Z,25.80
2019-05-18T11:23:07.767Z,25.63
2019-05-18T11:24:07.770Z,25.81
2019-05-18T11:25:07.781Z,25.73
2019-05-18T11:26:07.790Z,26.00
2019-05-18T11:27:07.802Z,26.26
2019-05-18T11:28:07.815Z,26.28
2019-05-18T11:29:07.824Z,26.22
2019-05-18T11:30:08.448Z,26.23
2019-05-18T11:31:07.848Z,26.15
2019-05-18T11:32:07.856Z,25.95
2019-05-18T11:33:07.916Z,25.77
2019-05-18T11:34:07.878Z,26.02
2019-05-18T11:35:07.888Z,26.25
2019-05-18T11:36:07.899Z,26.33
2019-05-18T11:37:07.910Z,26.43
2019-05-18T11:38:07.920Z,26.70
2019-05-18T11:39:07.933Z,26.90
2019-05-18T11:40:07.945Z,27.15
2019-05-18T11:41:07.955Z,27.20
2019-05-18T11:42:07.966Z,27.20
2019-05-18T11:43:07.977Z,27.08
2019-05-18T11:44:10.801Z,27.14
2019-05-18T11:45:08.000Z,27.14
2019-05-18T11:46:08.009Z,26.84
2019-05-18T11:47:08.021Z,26.45
2019-05-18T11:48:08.099Z,26.15
2019-05-18T11:49:08.039Z,25.75
2019-05-18T11:50:08.059Z,25.14
2019-05-18T11:51:08.057Z,24.80
2019-05-18T11:52:08.063Z,24.38
2019-05-18T11:53:08.070Z,24.05
2019-05-18T11:54:08.081Z,23.92
2019-05-18T11:55:08.086Z,23.80
2019-05-18T11:56:08.086Z,23.83
2019-05-18T11:57:08.168Z,23.69
2019-05-18T11:58:08.125Z,23.66
2019-05-18T11:59:08.104Z,23.54
2019-05-18T12:00:08.104Z,23.88
2019-05-18T12:01:08.110Z,24.03
2019-05-18T12:02:08.112Z,24.16
2019-05-18T12:03:08.119Z,24.13
2019-05-18T12:04:08.121Z,23.91
2019-05-18T12:05:08.125Z,23.74
2019-05-18T12:06:08.129Z,23.56
2019-05-18T12:07:08.138Z,23.58
2019-05-18T12:08:08.135Z,23.44
2019-05-18T12:09:08.138Z,23.92
2019-05-18T12:10:08.141Z,24.17
2019-05-18T12:11:08.144Z,24.35
2019-05-18T12:12:08.149Z,24.85
2019-05-18T12:13:08.158Z,25.29
2019-05-18T12:14:08.164Z,25.44
2019-05-18T12:15:08.167Z,25.17
2019-05-18T12:16:08.164Z,24.85
2019-05-18T12:17:08.167Z,24.40
2019-05-18T12:18:08.172Z,24.17
2019-05-18T12:19:08.173Z,23.96
2019-05-18T12:20:08.236Z,23.77
2019-05-18T12:21:08.178Z,23.62
2019-05-18T12:22:08.180Z,23.34
2019-05-18T12:23:09.014Z,23.43
2019-05-18T12:24:15.364Z,23.36
2019-05-18T12:25:08.195Z,23.17
2019-05-18T12:26:08.190Z,23.34
2019-05-18T12:27:08.186Z,23.27
2019-05-18T12:28:08.392Z,23.56
2019-05-18T12:29:08.190Z,24.05
2019-05-18T12:30:08.190Z,24.40
2019-05-18T12:31:08.196Z,24.39
2019-05-18T12:32:08.198Z,24.35
2019-05-18T12:33:08.201Z,24.05
2019-05-18T12:34:08.197Z,23.69
2019-05-18T12:35:08.203Z,23.50
2019-05-18T12:36:08.199Z,23.09
2019-05-18T12:37:08.200Z,22.85
2019-05-18T12:38:08.200Z,22.60
2019-05-18T12:39:08.201Z,22.55
2019-05-18T12:40:08.258Z,22.47
2019-05-18T12:41:08.200Z,22.13
2019-05-18T12:42:08.225Z,21.80
2019-05-18T12:43:08.198Z,21.69
2019-05-18T12:44:08.198Z,21.57
2019-05-18T12:45:08.196Z,21.55
2019-05-18T12:46:08.194Z,21.55
2019-05-18T12:47:08.226Z,21.54
2019-05-18T12:48:08.193Z,21.48
2019-05-18T12:49:08.240Z,21.40
2019-05-18T12:50:08.187Z,21.40
2019-05-18T12:51:08.185Z,21.29
2019-05-18T12:52:08.183Z,21.22
2019-05-18T12:53:08.181Z,21.24